sensor_id;sensor_type;location;lat;lon;timestamp;pressure;altitude;pressure_sealevel;temperature;humidity
76358;BME280;65185;21.060;105.826;2023-07-31T00:01:27;100303.88;;;29.47;94.26
76358;BME280;65185;21.060;105.826;2023-07-31T00:03:54;100298.53;;;29.47;93.75
76358;BME280;65185;21.060;105.826;2023-07-31T00:06:20;100303.88;;;29.47;94.34
76358;BME280;65185;21.060;105.826;2023-07-31T00:08:47;100318.78;;;29.49;94.50
76358;BME280;65185;21.060;105.826;2023-07-31T00:11:13;100321.59;;;29.48;94.67
76358;BME280;65185;21.060;105.826;2023-07-31T00:13:39;100320.75;;;29.47;93.88
76358;BME280;65185;21.060;105.826;2023-07-31T00:16:06;100331.56;;;29.46;94.30
76358;BME280;65185;21.060;105.826;2023-07-31T00:18:32;100329.34;;;29.51;94.53
76358;BME280;65185;21.060;105.826;2023-07-31T00:20:59;100333.81;;;29.50;93.99
76358;BME280;65185;21.060;105.826;2023-07-31T00:23:25;100336.34;;;29.52;94.26
76358;BME280;65185;21.060;105.826;2023-07-31T00:25:51;100333.56;;;29.54;95.12
76358;BME280;65185;21.060;105.826;2023-07-31T00:28:18;100335.94;;;29.57;94.20
76358;BME280;65185;21.060;105.826;2023-07-31T00:30:44;100339.34;;;29.59;93.96
76358;BME280;65185;21.060;105.826;2023-07-31T00:33:11;100345.78;;;29.56;93.79
76358;BME280;65185;21.060;105.826;2023-07-31T00:35:37;100347.50;;;29.57;93.96
76358;BME280;65185;21.060;105.826;2023-07-31T00:38:04;100353.06;;;29.54;94.14
76358;BME280;65185;21.060;105.826;2023-07-31T00:40:35;100354.66;;;29.57;93.70
76358;BME280;65185;21.060;105.826;2023-07-31T00:43:03;100346.50;;;29.58;93.69
76358;BME280;65185;21.060;105.826;2023-07-31T00:45:29;100347.19;;;29.60;93.11
76358;BME280;65185;21.060;105.826;2023-07-31T00:47:56;100345.38;;;29.61;92.85
76358;BME280;65185;21.060;105.826;2023-07-31T00:50:24;100350.59;;;29.62;92.91
76358;BME280;65185;21.060;105.826;2023-07-31T00:52:51;100356.78;;;29.63;92.88
76358;BME280;65185;21.060;105.826;2023-07-31T00:55:18;100349.59;;;29.63;92.04
76358;BME280;65185;21.060;105.826;2023-07-31T00:57:45;100358.16;;;29.67;91.82
76358;BME280;65185;21.060;105.826;2023-07-31T01:00:12;100362.44;;;29.69;92.29
76358;BME280;65185;21.060;105.826;2023-07-31T01:02:38;100346.13;;;29.72;91.82
76358;BME280;65185;21.060;105.826;2023-07-31T01:05:05;100352.88;;;29.76;91.99
76358;BME280;65185;21.060;105.826;2023-07-31T01:10:16;100350.38;;;29.84;90.71
76358;BME280;65185;21.060;105.826;2023-07-31T01:12:45;100349.94;;;29.89;90.48
76358;BME280;65185;21.060;105.826;2023-07-31T01:15:12;100345.06;;;29.94;90.88
76358;BME280;65185;21.060;105.826;2023-07-31T01:17:41;100340.41;;;29.96;90.13
76358;BME280;65185;21.060;105.826;2023-07-31T01:20:18;100345.63;;;29.97;90.08
76358;BME280;65185;21.060;105.826;2023-07-31T01:31:18;100350.13;;;30.16;89.33
76358;BME280;65185;21.060;105.826;2023-07-31T01:33:46;100350.53;;;30.21;88.96
76358;BME280;65185;21.060;105.826;2023-07-31T01:36:13;100352.69;;;30.27;88.78
76358;BME280;65185;21.060;105.826;2023-07-31T01:38:40;100352.25;;;30.31;88.70
76358;BME280;65185;21.060;105.826;2023-07-31T01:41:06;100352.66;;;30.36;88.66
76358;BME280;65185;21.060;105.826;2023-07-31T01:43:33;100350.53;;;30.40;88.05
76358;BME280;65185;21.060;105.826;2023-07-31T01:45:59;100351.25;;;30.42;87.64
76358;BME280;65185;21.060;105.826;2023-07-31T01:48:25;100350.97;;;30.45;87.78
76358;BME280;65185;21.060;105.826;2023-07-31T01:50:52;100358.84;;;30.47;87.49
76358;BME280;65185;21.060;105.826;2023-07-31T01:53:18;100356.03;;;30.48;87.05
76358;BME280;65185;21.060;105.826;2023-07-31T01:55:45;100351.53;;;30.49;87.14
76358;BME280;65185;21.060;105.826;2023-07-31T01:58:11;100353.22;;;30.50;87.27
76358;BME280;65185;21.060;105.826;2023-07-31T02:00:38;100348.56;;;30.52;86.99
76358;BME280;65185;21.060;105.826;2023-07-31T02:03:04;100350.81;;;30.56;87.14
76358;BME280;65185;21.060;105.826;2023-07-31T02:05:31;100355.56;;;30.62;86.26
76358;BME280;65185;21.060;105.826;2023-07-31T02:07:57;100353.75;;;30.63;86.12
76358;BME280;65185;21.060;105.826;2023-07-31T02:10:24;100359.66;;;30.76;85.87
76358;BME280;65185;21.060;105.826;2023-07-31T02:12:50;100355.59;;;30.81;85.03
76358;BME280;65185;21.060;105.826;2023-07-31T02:15:17;100354.13;;;30.96;84.38
76358;BME280;65185;21.060;105.826;2023-07-31T02:17:44;100355.25;;;30.94;84.34
76358;BME280;65185;21.060;105.826;2023-07-31T02:20:10;100345.25;;;30.96;84.57
76358;BME280;65185;21.060;105.826;2023-07-31T02:22:37;100358.63;;;30.96;84.16
76358;BME280;65185;21.060;105.826;2023-07-31T02:25:04;100356.97;;;30.95;84.01
76358;BME280;65185;21.060;105.826;2023-07-31T02:27:30;100363.00;;;30.97;83.19
76358;BME280;65185;21.060;105.826;2023-07-31T02:29:57;100364.69;;;30.98;83.04
76358;BME280;65185;21.060;105.826;2023-07-31T02:32:25;100371.72;;;30.99;83.02
76358;BME280;65185;21.060;105.826;2023-07-31T02:34:51;100366.63;;;31.05;83.27
76358;BME280;65185;21.060;105.826;2023-07-31T02:37:18;100368.97;;;31.18;82.96
76358;BME280;65185;21.060;105.826;2023-07-31T02:39:44;100367.00;;;31.20;83.23
76358;BME280;65185;21.060;105.826;2023-07-31T02:42:10;100359.69;;;31.22;83.65
76358;BME280;65185;21.060;105.826;2023-07-31T02:44:37;100357.22;;;31.28;82.93
76358;BME280;65185;21.060;105.826;2023-07-31T02:47:04;100363.19;;;31.22;82.62
76358;BME280;65185;21.060;105.826;2023-07-31T02:49:30;100363.44;;;31.29;81.96
76358;BME280;65185;21.060;105.826;2023-07-31T02:51:56;100367.66;;;31.31;81.71
76358;BME280;65185;21.060;105.826;2023-07-31T02:54:23;100361.06;;;31.26;82.40
76358;BME280;65185;21.060;105.826;2023-07-31T02:56:49;100365.72;;;31.24;83.28
76358;BME280;65185;21.060;105.826;2023-07-31T02:59:17;100370.22;;;31.23;83.74
76358;BME280;65185;21.060;105.826;2023-07-31T03:01:44;100365.56;;;31.25;83.14
76358;BME280;65185;21.060;105.826;2023-07-31T03:04:11;100366.50;;;31.34;82.22
76358;BME280;65185;21.060;105.826;2023-07-31T03:06:37;100369.81;;;31.28;82.46
76358;BME280;65185;21.060;105.826;2023-07-31T03:09:03;100363.44;;;31.29;82.81
76358;BME280;65185;21.060;105.826;2023-07-31T03:11:30;100365.81;;;31.42;81.47
76358;BME280;65185;21.060;105.826;2023-07-31T03:13:56;100370.72;;;31.46;82.14
76358;BME280;65185;21.060;105.826;2023-07-31T03:16:23;100361.41;;;31.50;82.30
76358;BME280;65185;21.060;105.826;2023-07-31T03:18:49;100359.56;;;31.51;82.11
76358;BME280;65185;21.060;105.826;2023-07-31T03:21:16;100352.91;;;31.55;81.53
76358;BME280;65185;21.060;105.826;2023-07-31T03:23:42;100353.41;;;31.68;81.19
76358;BME280;65185;21.060;105.826;2023-07-31T03:26:09;100348.50;;;31.90;80.27
76358;BME280;65185;21.060;105.826;2023-07-31T03:28:36;100337.91;;;31.89;80.13
76358;BME280;65185;21.060;105.826;2023-07-31T03:31:02;100337.34;;;31.85;80.53
76358;BME280;65185;21.060;105.826;2023-07-31T03:33:29;100339.03;;;31.86;80.35
76358;BME280;65185;21.060;105.826;2023-07-31T03:35:56;100334.66;;;31.85;80.40
76358;BME280;65185;21.060;105.826;2023-07-31T03:38:22;100333.69;;;31.86;80.10
76358;BME280;65185;21.060;105.826;2023-07-31T03:40:49;100328.09;;;32.15;78.51
76358;BME280;65185;21.060;105.826;2023-07-31T03:43:15;100323.00;;;32.21;78.69
76358;BME280;65185;21.060;105.826;2023-07-31T03:45:42;100325.91;;;32.10;79.01
76358;BME280;65185;21.060;105.826;2023-07-31T03:48:08;100324.72;;;32.13;79.51
76358;BME280;65185;21.060;105.826;2023-07-31T03:50:35;100320.28;;;32.04;79.64
76358;BME280;65185;21.060;105.826;2023-07-31T03:53:02;100318.16;;;32.07;78.53
76358;BME280;65185;21.060;105.826;2023-07-31T03:55:28;100314.63;;;32.24;78.25
76358;BME280;65185;21.060;105.826;2023-07-31T03:57:54;100316.84;;;32.29;78.78
76358;BME280;65185;21.060;105.826;2023-07-31T04:00:21;100308.09;;;32.45;77.37
76358;BME280;65185;21.060;105.826;2023-07-31T04:02:48;100310.88;;;32.61;77.23
76358;BME280;65185;21.060;105.826;2023-07-31T04:05:15;100308.69;;;32.82;76.05
76358;BME280;65185;21.060;105.826;2023-07-31T04:07:42;100311.25;;;32.91;76.18
76358;BME280;65185;21.060;105.826;2023-07-31T04:10:08;100304.53;;;32.87;75.63
76358;BME280;65185;21.060;105.826;2023-07-31T04:12:35;100302.59;;;32.97;75.81
76358;BME280;65185;21.060;105.826;2023-07-31T04:15:02;100300.13;;;33.04;74.65
76358;BME280;65185;21.060;105.826;2023-07-31T04:17:28;100290.25;;;33.12;74.33
76358;BME280;65185;21.060;105.826;2023-07-31T04:19:55;100287.38;;;33.14;73.66
76358;BME280;65185;21.060;105.826;2023-07-31T04:22:27;100292.53;;;33.41;74.43
76358;BME280;65185;21.060;105.826;2023-07-31T04:24:53;100291.34;;;33.44;74.50
76358;BME280;65185;21.060;105.826;2023-07-31T04:27:20;100294.84;;;33.36;73.26
76358;BME280;65185;21.060;105.826;2023-07-31T04:29:46;100284.16;;;33.44;72.29
76358;BME280;65185;21.060;105.826;2023-07-31T04:32:13;100288.16;;;33.40;73.36
76358;BME280;65185;21.060;105.826;2023-07-31T04:34:42;100286.78;;;33.28;74.45
76358;BME280;65185;21.060;105.826;2023-07-31T04:37:08;100289.47;;;33.36;73.73
76358;BME280;65185;21.060;105.826;2023-07-31T04:39:35;100282.28;;;33.37;73.67
76358;BME280;65185;21.060;105.826;2023-07-31T04:42:01;100297.41;;;33.38;74.06
76358;BME280;65185;21.060;105.826;2023-07-31T04:44:28;100290.31;;;33.28;73.79
76358;BME280;65185;21.060;105.826;2023-07-31T04:46:54;100294.22;;;33.34;72.91
76358;BME280;65185;21.060;105.826;2023-07-31T04:49:21;100280.09;;;33.32;73.24
76358;BME280;65185;21.060;105.826;2023-07-31T04:51:47;100279.13;;;33.41;73.41
76358;BME280;65185;21.060;105.826;2023-07-31T04:54:14;100279.13;;;33.41;73.70
76358;BME280;65185;21.060;105.826;2023-07-31T04:56:43;100275.16;;;33.19;74.16
76358;BME280;65185;21.060;105.826;2023-07-31T04:59:10;100272.47;;;33.19;74.83
76358;BME280;65185;21.060;105.826;2023-07-31T05:01:36;100269.16;;;33.25;73.76
76358;BME280;65185;21.060;105.826;2023-07-31T05:04:03;100260.44;;;33.32;73.43
76358;BME280;65185;21.060;105.826;2023-07-31T05:06:29;100260.56;;;33.22;74.59
76358;BME280;65185;21.060;105.826;2023-07-31T05:08:55;100253.38;;;33.22;73.32
76358;BME280;65185;21.060;105.826;2023-07-31T05:11:22;100243.91;;;33.10;73.24
76358;BME280;65185;21.060;105.826;2023-07-31T05:13:48;100247.44;;;33.11;72.80
76358;BME280;65185;21.060;105.826;2023-07-31T05:16:15;100248.81;;;33.15;73.51
76358;BME280;65185;21.060;105.826;2023-07-31T05:18:41;100252.34;;;33.15;73.74
76358;BME280;65185;21.060;105.826;2023-07-31T05:21:08;100257.03;;;33.21;72.52
76358;BME280;65185;21.060;105.826;2023-07-31T05:23:34;100253.88;;;33.26;71.33
76358;BME280;65185;21.060;105.826;2023-07-31T05:26:07;100253.75;;;33.36;71.34
76358;BME280;65185;21.060;105.826;2023-07-31T05:28:36;100250.84;;;33.29;71.59
76358;BME280;65185;21.060;105.826;2023-07-31T05:31:04;100238.09;;;33.31;72.58
76358;BME280;65185;21.060;105.826;2023-07-31T05:33:31;100234.06;;;33.27;72.91
76358;BME280;65185;21.060;105.826;2023-07-31T05:35:57;100227.19;;;33.24;73.22
76358;BME280;65185;21.060;105.826;2023-07-31T05:38:24;100212.56;;;33.27;72.97
76358;BME280;65185;21.060;105.826;2023-07-31T05:40:50;100209.88;;;33.27;73.70
76358;BME280;65185;21.060;105.826;2023-07-31T05:43:17;100201.50;;;33.22;74.61
76358;BME280;65185;21.060;105.826;2023-07-31T05:45:44;100188.56;;;33.17;73.61
76358;BME280;65185;21.060;105.826;2023-07-31T05:48:10;100190.06;;;33.20;73.42
76358;BME280;65185;21.060;105.826;2023-07-31T05:50:37;100185.53;;;33.12;73.23
76358;BME280;65185;21.060;105.826;2023-07-31T05:53:06;100179.34;;;33.12;73.58
76358;BME280;65185;21.060;105.826;2023-07-31T05:55:34;100177.97;;;33.08;72.41
76358;BME280;65185;21.060;105.826;2023-07-31T05:58:00;100180.97;;;33.05;72.88
76358;BME280;65185;21.060;105.826;2023-07-31T06:00:27;100171.94;;;33.06;73.36
76358;BME280;65185;21.060;105.826;2023-07-31T06:02:53;100175.47;;;33.06;73.31
76358;BME280;65185;21.060;105.826;2023-07-31T06:05:20;100172.44;;;33.09;73.23
76358;BME280;65185;21.060;105.826;2023-07-31T06:07:46;100178.66;;;33.10;73.41
76358;BME280;65185;21.060;105.826;2023-07-31T06:10:13;100178.44;;;33.03;74.27
76358;BME280;65185;21.060;105.826;2023-07-31T06:12:44;100172.22;;;32.95;75.26
76358;BME280;65185;21.060;105.826;2023-07-31T06:15:11;100166.97;;;32.85;76.37
76358;BME280;65185;21.060;105.826;2023-07-31T06:17:38;100159.53;;;32.79;77.00
76358;BME280;65185;21.060;105.826;2023-07-31T06:20:06;100149.31;;;32.75;77.45
76358;BME280;65185;21.060;105.826;2023-07-31T06:22:33;100134.19;;;32.66;77.16
76358;BME280;65185;21.060;105.826;2023-07-31T06:25:00;100126.78;;;32.60;76.21
76358;BME280;65185;21.060;105.826;2023-07-31T06:27:27;100116.53;;;32.55;75.65
76358;BME280;65185;21.060;105.826;2023-07-31T06:29:55;100111.31;;;32.54;76.14
76358;BME280;65185;21.060;105.826;2023-07-31T06:32:21;100111.72;;;32.59;76.11
76358;BME280;65185;21.060;105.826;2023-07-31T06:34:48;100105.31;;;32.60;76.19
76358;BME280;65185;21.060;105.826;2023-07-31T06:37:15;100093.75;;;32.59;76.18
76358;BME280;65185;21.060;105.826;2023-07-31T06:39:42;100089.22;;;32.60;77.35
76358;BME280;65185;21.060;105.826;2023-07-31T06:42:09;100097.22;;;32.52;78.25
76358;BME280;65185;21.060;105.826;2023-07-31T06:44:36;100098.41;;;32.49;79.53
76358;BME280;65185;21.060;105.826;2023-07-31T06:47:03;100100.72;;;32.44;78.94
76358;BME280;65185;21.060;105.826;2023-07-31T06:49:30;100093.63;;;32.35;79.48
76358;BME280;65185;21.060;105.826;2023-07-31T06:51:57;100069.28;;;32.28;81.25
76358;BME280;65185;21.060;105.826;2023-07-31T06:54:23;100063.59;;;32.23;80.62
76358;BME280;65185;21.060;105.826;2023-07-31T06:56:50;100079.69;;;32.23;79.34
76358;BME280;65185;21.060;105.826;2023-07-31T06:59:17;100092.41;;;32.29;80.05
76358;BME280;65185;21.060;105.826;2023-07-31T07:01:44;100111.50;;;32.26;77.25
76358;BME280;65185;21.060;105.826;2023-07-31T07:04:11;100121.97;;;32.38;76.96
76358;BME280;65185;21.060;105.826;2023-07-31T07:06:38;100124.81;;;32.36;76.28
76358;BME280;65185;21.060;105.826;2023-07-31T07:09:04;100119.44;;;32.36;77.40
76358;BME280;65185;21.060;105.826;2023-07-31T07:11:32;100103.16;;;32.29;76.99
76358;BME280;65185;21.060;105.826;2023-07-31T07:13:59;100102.09;;;32.14;75.51
76358;BME280;65185;21.060;105.826;2023-07-31T07:16:28;100119.84;;;31.90;73.74
76358;BME280;65185;21.060;105.826;2023-07-31T07:18:55;100157.66;;;31.69;74.49
76358;BME280;65185;21.060;105.826;2023-07-31T07:21:21;100160.97;;;31.28;79.59
76358;BME280;65185;21.060;105.826;2023-07-31T07:23:49;100188.88;;;31.08;82.92
76358;BME280;65185;21.060;105.826;2023-07-31T07:26:16;100223.53;;;30.73;86.68
76358;BME280;65185;21.060;105.826;2023-07-31T07:28:42;100242.22;;;30.36;89.45
76358;BME280;65185;21.060;105.826;2023-07-31T07:31:09;100260.38;;;30.13;91.58
76358;BME280;65185;21.060;105.826;2023-07-31T07:33:36;100263.19;;;29.83;94.05
76358;BME280;65185;21.060;105.826;2023-07-31T07:36:03;100261.88;;;29.49;95.26
76358;BME280;65185;21.060;105.826;2023-07-31T07:38:30;100268.31;;;29.27;95.51
76358;BME280;65185;21.060;105.826;2023-07-31T07:40:56;100265.50;;;29.29;96.87
76358;BME280;65185;21.060;105.826;2023-07-31T07:43:23;100273.50;;;28.99;93.22
76358;BME280;65185;21.060;105.826;2023-07-31T07:45:50;100263.16;;;28.75;92.40
76358;BME280;65185;21.060;105.826;2023-07-31T07:48:16;100257.38;;;28.70;92.70
76358;BME280;65185;21.060;105.826;2023-07-31T07:50:43;100266.25;;;28.71;95.09
76358;BME280;65185;21.060;105.826;2023-07-31T07:53:10;100269.44;;;28.65;96.73
76358;BME280;65185;21.060;105.826;2023-07-31T07:55:37;100255.09;;;28.56;97.98
76358;BME280;65185;21.060;105.826;2023-07-31T07:58:04;100244.78;;;28.51;99.37
76358;BME280;65185;21.060;105.826;2023-07-31T08:00:31;100232.81;;;28.46;100.00
76358;BME280;65185;21.060;105.826;2023-07-31T08:02:57;100227.88;;;28.41;100.00
76358;BME280;65185;21.060;105.826;2023-07-31T08:05:24;100235.19;;;28.39;100.00
76358;BME280;65185;21.060;105.826;2023-07-31T08:07:51;100252.66;;;28.32;100.00
76358;BME280;65185;21.060;105.826;2023-07-31T08:10:18;100262.34;;;28.33;100.00
76358;BME280;65185;21.060;105.826;2023-07-31T08:12:45;100263.31;;;28.32;100.00
76358;BME280;65185;21.060;105.826;2023-07-31T08:15:11;100262.34;;;28.33;100.00
76358;BME280;65185;21.060;105.826;2023-07-31T08:17:38;100259.69;;;28.33;100.00
76358;BME280;65185;21.060;105.826;2023-07-31T08:20:06;100248.16;;;28.33;100.00
76358;BME280;65185;21.060;105.826;2023-07-31T08:22:33;100233.88;;;28.34;100.00
76358;BME280;65185;21.060;105.826;2023-07-31T08:25:00;100217.91;;;28.34;100.00
76358;BME280;65185;21.060;105.826;2023-07-31T08:27:27;100208.19;;;28.33;100.00
76358;BME280;65185;21.060;105.826;2023-07-31T08:29:54;100202.72;;;28.34;100.00
76358;BME280;65185;21.060;105.826;2023-07-31T08:32:20;100192.06;;;28.34;100.00
76358;BME280;65185;21.060;105.826;2023-07-31T08:34:47;100176.34;;;28.31;100.00
76358;BME280;65185;21.060;105.826;2023-07-31T08:37:15;100170.44;;;28.28;100.00
76358;BME280;65185;21.060;105.826;2023-07-31T08:39:41;100179.28;;;28.28;100.00
76358;BME280;65185;21.060;105.826;2023-07-31T08:42:08;100178.03;;;28.32;100.00
76358;BME280;65185;21.060;105.826;2023-07-31T08:44:36;100182.25;;;28.35;100.00
76358;BME280;65185;21.060;105.826;2023-07-31T08:47:04;100181.28;;;28.36;100.00
76358;BME280;65185;21.060;105.826;2023-07-31T08:49:32;100187.59;;;28.35;100.00
76358;BME280;65185;21.060;105.826;2023-07-31T08:51:58;100185.63;;;28.37;100.00
76358;BME280;65185;21.060;105.826;2023-07-31T08:54:25;100175.69;;;28.39;100.00
76358;BME280;65185;21.060;105.826;2023-07-31T08:56:57;100159.38;;;28.32;100.00
76358;BME280;65185;21.060;105.826;2023-07-31T08:59:29;100147.44;;;28.27;100.00
76358;BME280;65185;21.060;105.826;2023-07-31T09:01:59;100133.66;;;28.22;100.00
76358;BME280;65185;21.060;105.826;2023-07-31T09:04:30;100131.41;;;28.17;100.00
76358;BME280;65185;21.060;105.826;2023-07-31T09:07:01;100134.59;;;28.11;100.00
76358;BME280;65185;21.060;105.826;2023-07-31T09:09:32;100138.38;;;28.09;100.00
76358;BME280;65185;21.060;105.826;2023-07-31T09:11:59;100148.88;;;28.10;100.00
76358;BME280;65185;21.060;105.826;2023-07-31T09:14:27;100149.75;;;28.11;100.00
76358;BME280;65185;21.060;105.826;2023-07-31T09:16:55;100154.50;;;28.07;100.00
76358;BME280;65185;21.060;105.826;2023-07-31T09:19:35;100154.63;;;28.06;100.00
76358;BME280;65185;21.060;105.826;2023-07-31T09:22:06;100156.56;;;28.04;100.00
76358;BME280;65185;21.060;105.826;2023-07-31T09:24:34;100160.22;;;28.03;100.00
76358;BME280;65185;21.060;105.826;2023-07-31T09:27:01;100153.06;;;28.03;100.00
76358;BME280;65185;21.060;105.826;2023-07-31T09:29:29;100147.88;;;28.02;100.00
76358;BME280;65185;21.060;105.826;2023-07-31T09:31:58;100145.72;;;27.96;100.00
76358;BME280;65185;21.060;105.826;2023-07-31T09:34:37;100149.94;;;27.98;100.00
76358;BME280;65185;21.060;105.826;2023-07-31T09:37:07;100147.88;;;28.02;100.00
76358;BME280;65185;21.060;105.826;2023-07-31T09:39:46;100148.84;;;28.01;100.00
76358;BME280;65185;21.060;105.826;2023-07-31T09:42:13;100156.94;;;27.99;100.00
76358;BME280;65185;21.060;105.826;2023-07-31T09:44:41;100154.44;;;27.98;100.00
76358;BME280;65185;21.060;105.826;2023-07-31T09:47:23;100163.00;;;28.01;100.00
76358;BME280;65185;21.060;105.826;2023-07-31T09:49:50;100179.84;;;28.02;100.00
76358;BME280;65185;21.060;105.826;2023-07-31T09:52:17;100178.88;;;28.03;100.00
76358;BME280;65185;21.060;105.826;2023-07-31T09:54:43;100190.47;;;28.02;100.00
76358;BME280;65185;21.060;105.826;2023-07-31T09:57:11;100195.44;;;28.06;100.00
76358;BME280;65185;21.060;105.826;2023-07-31T09:59:38;100210.06;;;28.12;100.00
76358;BME280;65185;21.060;105.826;2023-07-31T10:02:09;100206.19;;;28.05;100.00
76358;BME280;65185;21.060;105.826;2023-07-31T10:04:42;100219.13;;;28.09;100.00
76358;BME280;65185;21.060;105.826;2023-07-31T10:07:11;100226.13;;;28.10;100.00
76358;BME280;65185;21.060;105.826;2023-07-31T10:09:38;100229.41;;;28.14;100.00
76358;BME280;65185;21.060;105.826;2023-07-31T10:12:07;100237.00;;;28.18;100.00
76358;BME280;65185;21.060;105.826;2023-07-31T10:14:36;100245.72;;;28.20;100.00
76358;BME280;65185;21.060;105.826;2023-07-31T10:17:03;100244.78;;;28.31;100.00
76358;BME280;65185;21.060;105.826;2023-07-31T10:19:31;100247.91;;;28.36;100.00
76358;BME280;65185;21.060;105.826;2023-07-31T10:22:03;100246.22;;;28.35;100.00
76358;BME280;65185;21.060;105.826;2023-07-31T10:24:30;100241.88;;;28.34;100.00
76358;BME280;65185;21.060;105.826;2023-07-31T10:26:58;100243.97;;;28.30;100.00
76358;BME280;65185;21.060;105.826;2023-07-31T10:29:26;100230.38;;;28.33;100.00
76358;BME280;65185;21.060;105.826;2023-07-31T10:31:57;100234.53;;;28.26;100.00
76358;BME280;65185;21.060;105.826;2023-07-31T10:34:25;100238.09;;;28.16;100.00
76358;BME280;65185;21.060;105.826;2023-07-31T10:37:21;100240.31;;;28.11;100.00
76358;BME280;65185;21.060;105.826;2023-07-31T10:40:01;100246.16;;;28.05;99.04
76358;BME280;65185;21.060;105.826;2023-07-31T10:42:55;100237.97;;;27.97;99.36
76358;BME280;65185;21.060;105.826;2023-07-31T10:48:30;100237.91;;;27.76;97.52
76358;BME280;65185;21.060;105.826;2023-07-31T10:50:59;100237.06;;;27.76;99.01
76358;BME280;65185;21.060;105.826;2023-07-31T10:53:33;100235.75;;;27.70;100.00
76358;BME280;65185;21.060;105.826;2023-07-31T10:56:00;100243.75;;;27.70;100.00
76358;BME280;65185;21.060;105.826;2023-07-31T10:58:27;100251.13;;;27.67;99.51
76358;BME280;65185;21.060;105.826;2023-07-31T11:01:00;100253.34;;;27.62;99.32
76358;BME280;65185;21.060;105.826;2023-07-31T11:03:47;100255.88;;;27.63;97.82
76358;BME280;65185;21.060;105.826;2023-07-31T11:06:16;100259.97;;;27.67;98.73
76358;BME280;65185;21.060;105.826;2023-07-31T11:08:47;100254.44;;;27.59;97.16
76358;BME280;65185;21.060;105.826;2023-07-31T11:11:18;100259.88;;;27.57;96.16
76358;BME280;65185;21.060;105.826;2023-07-31T11:13:50;100257.63;;;27.53;95.42
76358;BME280;65185;21.060;105.826;2023-07-31T11:16:22;100266.31;;;27.55;96.17
76358;BME280;65185;21.060;105.826;2023-07-31T11:18:50;100266.78;;;27.60;97.60
76358;BME280;65185;21.060;105.826;2023-07-31T11:21:21;100273.28;;;27.67;97.59
76358;BME280;65185;21.060;105.826;2023-07-31T11:23:53;100273.88;;;27.71;98.64
76358;BME280;65185;21.060;105.826;2023-07-31T11:26:23;100282.81;;;27.81;100.00
76358;BME280;65185;21.060;105.826;2023-07-31T11:28:51;100288.81;;;27.83;100.00
76358;BME280;65185;21.060;105.826;2023-07-31T11:31:18;100275.59;;;27.92;100.00
76358;BME280;65185;21.060;105.826;2023-07-31T11:33:45;100268.25;;;27.85;100.00
76358;BME280;65185;21.060;105.826;2023-07-31T11:36:19;100264.22;;;27.90;100.00
76358;BME280;65185;21.060;105.826;2023-07-31T11:38:47;100269.47;;;27.92;100.00
76358;BME280;65185;21.060;105.826;2023-07-31T11:41:15;100269.97;;;27.86;100.00
76358;BME280;65185;21.060;105.826;2023-07-31T11:43:42;100261.69;;;27.89;100.00
76358;BME280;65185;21.060;105.826;2023-07-31T11:46:09;100265.09;;;27.91;100.00
76358;BME280;65185;21.060;105.826;2023-07-31T11:48:37;100264.84;;;27.94;100.00
76358;BME280;65185;21.060;105.826;2023-07-31T11:51:05;100260.75;;;27.90;100.00
76358;BME280;65185;21.060;105.826;2023-07-31T11:53:44;100260.25;;;27.85;100.00
76358;BME280;65185;21.060;105.826;2023-07-31T11:56:17;100266.56;;;27.84;99.24
76358;BME280;65185;21.060;105.826;2023-07-31T11:58:50;100266.44;;;27.85;99.53
76358;BME280;65185;21.060;105.826;2023-07-31T12:01:22;100264.63;;;27.86;100.00
76358;BME280;65185;21.060;105.826;2023-07-31T12:03:50;100263.66;;;27.87;100.00
76358;BME280;65185;21.060;105.826;2023-07-31T12:06:18;100272.34;;;27.89;100.00
76358;BME280;65185;21.060;105.826;2023-07-31T12:08:47;100264.38;;;27.89;100.00
76358;BME280;65185;21.060;105.826;2023-07-31T12:11:15;100269.81;;;27.87;100.00
76358;BME280;65185;21.060;105.826;2023-07-31T12:13:43;100275.16;;;27.87;100.00
76358;BME280;65185;21.060;105.826;2023-07-31T12:16:10;100276.13;;;27.86;100.00
76358;BME280;65185;21.060;105.826;2023-07-31T12:18:38;100279.75;;;27.85;100.00
76358;BME280;65185;21.060;105.826;2023-07-31T12:21:08;100283.41;;;27.84;100.00
76358;BME280;65185;21.060;105.826;2023-07-31T12:23:36;100288.97;;;27.81;100.00
76358;BME280;65185;21.060;105.826;2023-07-31T12:26:14;100299.63;;;27.81;100.00
76358;BME280;65185;21.060;105.826;2023-07-31T12:28:49;100305.78;;;27.82;100.00
76358;BME280;65185;21.060;105.826;2023-07-31T12:31:18;100325.28;;;27.82;100.00
76358;BME280;65185;21.060;105.826;2023-07-31T12:33:46;100335.81;;;27.84;100.00
76358;BME280;65185;21.060;105.826;2023-07-31T12:36:16;100347.19;;;27.86;100.00
76358;BME280;65185;21.060;105.826;2023-07-31T12:38:43;100368.50;;;27.86;100.00
76358;BME280;65185;21.060;105.826;2023-07-31T12:41:10;100370.28;;;27.85;100.00
76358;BME280;65185;21.060;105.826;2023-07-31T12:43:38;100386.28;;;27.85;100.00
76358;BME280;65185;21.060;105.826;2023-07-31T12:46:06;100395.13;;;27.86;100.00